sensor_id;sensor_type;location;lat;lon;timestamp;temperature;humidity
71208;DHT22;58938;49.868;8.646;2022-07-29T00:00:38;25.20;32.20
71208;DHT22;58938;49.868;8.646;2022-07-29T00:03:03;25.20;32.30
71208;DHT22;58938;49.868;8.646;2022-07-29T00:05:29;25.20;32.50
71208;DHT22;58938;49.868;8.646;2022-07-29T00:07:55;25.20;32.40
71208;DHT22;58938;49.868;8.646;2022-07-29T00:10:21;25.20;32.30
71208;DHT22;58938;49.868;8.646;2022-07-29T00:12:46;25.20;32.20
71208;DHT22;58938;49.868;8.646;2022-07-29T00:15:12;25.20;32.20
71208;DHT22;58938;49.868;8.646;2022-07-29T00:17:37;25.20;32.30
71208;DHT22;58938;49.868;8.646;2022-07-29T00:20:04;25.20;32.20
71208;DHT22;58938;49.868;8.646;2022-07-29T00:22:29;25.20;32.30
71208;DHT22;58938;49.868;8.646;2022-07-29T00:24:55;25.20;32.30
71208;DHT22;58938;49.868;8.646;2022-07-29T00:27:20;25.20;32.40
71208;DHT22;58938;49.868;8.646;2022-07-29T00:29:47;25.20;32.30
71208;DHT22;58938;49.868;8.646;2022-07-29T00:32:12;25.20;32.20
71208;DHT22;58938;49.868;8.646;2022-07-29T00:34:38;25.10;32.10
71208;DHT22;58938;49.868;8.646;2022-07-29T00:37:22;25.10;32.10
71208;DHT22;58938;49.868;8.646;2022-07-29T00:39:48;25.10;32.10
71208;DHT22;58938;49.868;8.646;2022-07-29T00:42:13;25.10;32.20
71208;DHT22;58938;49.868;8.646;2022-07-29T00:44:40;25.10;32.20
71208;DHT22;58938;49.868;8.646;2022-07-29T00:47:07;25.10;32.30
71208;DHT22;58938;49.868;8.646;2022-07-29T00:49:34;25.00;32.20
71208;DHT22;58938;49.868;8.646;2022-07-29T00:52:01;25.00;32.10
71208;DHT22;58938;49.868;8.646;2022-07-29T00:54:27;25.00;32.00
71208;DHT22;58938;49.868;8.646;2022-07-29T00:56:56;25.00;31.80
71208;DHT22;58938;49.868;8.646;2022-07-29T00:59:21;24.90;31.80
71208;DHT22;58938;49.868;8.646;2022-07-29T01:01:47;24.90;31.80
71208;DHT22;58938;49.868;8.646;2022-07-29T01:04:12;24.90;31.70
71208;DHT22;58938;49.868;8.646;2022-07-29T01:06:38;24.90;31.70
71208;DHT22;58938;49.868;8.646;2022-07-29T01:09:04;24.80;31.70
71208;DHT22;58938;49.868;8.646;2022-07-29T01:11:29;24.80;31.70
71208;DHT22;58938;49.868;8.646;2022-07-29T01:13:55;24.80;31.80
71208;DHT22;58938;49.868;8.646;2022-07-29T01:16:34;24.80;31.70
71208;DHT22;58938;49.868;8.646;2022-07-29T01:19:10;24.80;31.80
71208;DHT22;58938;49.868;8.646;2022-07-29T01:27:45;24.70;31.80
71208;DHT22;58938;49.868;8.646;2022-07-29T01:30:13;24.60;31.80
71208;DHT22;58938;49.868;8.646;2022-07-29T01:32:39;24.60;31.80
71208;DHT22;58938;49.868;8.646;2022-07-29T01:35:14;24.60;31.90
71208;DHT22;58938;49.868;8.646;2022-07-29T01:40:40;24.60;32.00
71208;DHT22;58938;49.868;8.646;2022-07-29T01:43:14;24.60;31.90
71208;DHT22;58938;49.868;8.646;2022-07-29T01:45:54;24.60;31.80
71208;DHT22;58938;49.868;8.646;2022-07-29T01:48:26;24.50;31.90
71208;DHT22;58938;49.868;8.646;2022-07-29T01:51:07;24.50;32.00
71208;DHT22;58938;49.868;8.646;2022-07-29T01:53:54;24.50;32.00
71208;DHT22;58938;49.868;8.646;2022-07-29T01:56:21;24.50;32.10
71208;DHT22;58938;49.868;8.646;2022-07-29T01:58:49;24.50;32.10
71208;DHT22;58938;49.868;8.646;2022-07-29T02:01:17;24.40;32.10
71208;DHT22;58938;49.868;8.646;2022-07-29T02:03:45;24.40;32.10
71208;DHT22;58938;49.868;8.646;2022-07-29T02:06:12;24.40;32.30
71208;DHT22;58938;49.868;8.646;2022-07-29T02:08:40;24.40;32.40
71208;DHT22;58938;49.868;8.646;2022-07-29T02:11:08;24.40;32.40
71208;DHT22;58938;49.868;8.646;2022-07-29T02:13:36;24.40;32.30
71208;DHT22;58938;49.868;8.646;2022-07-29T02:16:05;24.40;32.30
71208;DHT22;58938;49.868;8.646;2022-07-29T02:18:31;24.30;32.30
71208;DHT22;58938;49.868;8.646;2022-07-29T02:20:59;24.30;32.30
71208;DHT22;58938;49.868;8.646;2022-07-29T02:23:26;24.30;32.30
71208;DHT22;58938;49.868;8.646;2022-07-29T02:25:56;24.30;32.30
71208;DHT22;58938;49.868;8.646;2022-07-29T02:28:25;24.20;32.30
71208;DHT22;58938;49.868;8.646;2022-07-29T02:30:53;24.20;32.30
71208;DHT22;58938;49.868;8.646;2022-07-29T02:33:21;24.20;32.20
71208;DHT22;58938;49.868;8.646;2022-07-29T02:35:48;24.20;32.40
71208;DHT22;58938;49.868;8.646;2022-07-29T02:38:16;24.20;32.40
71208;DHT22;58938;49.868;8.646;2022-07-29T02:41:05;24.20;32.40
71208;DHT22;58938;49.868;8.646;2022-07-29T02:43:34;24.20;32.30
71208;DHT22;58938;49.868;8.646;2022-07-29T02:46:03;24.20;32.20
71208;DHT22;58938;49.868;8.646;2022-07-29T02:48:43;24.10;32.30
71208;DHT22;58938;49.868;8.646;2022-07-29T02:51:19;24.10;32.20
71208;DHT22;58938;49.868;8.646;2022-07-29T02:53:49;24.10;32.20
71208;DHT22;58938;49.868;8.646;2022-07-29T02:56:17;24.10;32.30
71208;DHT22;58938;49.868;8.646;2022-07-29T02:58:49;24.10;32.20
71208;DHT22;58938;49.868;8.646;2022-07-29T03:01:16;24.00;32.30
71208;DHT22;58938;49.868;8.646;2022-07-29T03:03:46;24.00;32.40
71208;DHT22;58938;49.868;8.646;2022-07-29T03:06:14;24.00;32.40
71208;DHT22;58938;49.868;8.646;2022-07-29T03:08:40;24.00;32.50
71208;DHT22;58938;49.868;8.646;2022-07-29T03:11:08;24.00;32.50
71208;DHT22;58938;49.868;8.646;2022-07-29T03:13:35;24.00;32.50
71208;DHT22;58938;49.868;8.646;2022-07-29T03:16:01;23.90;32.60
71208;DHT22;58938;49.868;8.646;2022-07-29T03:18:31;23.90;32.60
71208;DHT22;58938;49.868;8.646;2022-07-29T03:20:57;23.90;32.60
71208;DHT22;58938;49.868;8.646;2022-07-29T03:23:24;23.90;32.70
71208;DHT22;58938;49.868;8.646;2022-07-29T03:25:51;23.80;32.70
71208;DHT22;58938;49.868;8.646;2022-07-29T03:28:17;23.80;32.80
71208;DHT22;58938;49.868;8.646;2022-07-29T03:30:43;23.80;32.80
71208;DHT22;58938;49.868;8.646;2022-07-29T03:33:09;23.80;32.90
71208;DHT22;58938;49.868;8.646;2022-07-29T03:35:34;23.80;32.90
71208;DHT22;58938;49.868;8.646;2022-07-29T03:38:00;23.80;32.90
71208;DHT22;58938;49.868;8.646;2022-07-29T03:40:31;23.80;32.90
71208;DHT22;58938;49.868;8.646;2022-07-29T03:42:59;23.70;32.90
71208;DHT22;58938;49.868;8.646;2022-07-29T03:45:27;23.70;33.00
71208;DHT22;58938;49.868;8.646;2022-07-29T03:48:07;23.70;33.10
71208;DHT22;58938;49.868;8.646;2022-07-29T03:50:34;23.60;33.10
71208;DHT22;58938;49.868;8.646;2022-07-29T03:53:01;23.60;33.20
71208;DHT22;58938;49.868;8.646;2022-07-29T03:55:31;23.60;33.10
71208;DHT22;58938;49.868;8.646;2022-07-29T03:57:58;23.60;33.20
71208;DHT22;58938;49.868;8.646;2022-07-29T04:00:27;23.60;33.40
71208;DHT22;58938;49.868;8.646;2022-07-29T04:02:52;23.60;33.60
71208;DHT22;58938;49.868;8.646;2022-07-29T04:05:18;23.50;33.80
71208;DHT22;58938;49.868;8.646;2022-07-29T04:07:45;23.50;33.80
71208;DHT22;58938;49.868;8.646;2022-07-29T04:10:11;23.50;33.90
71208;DHT22;58938;49.868;8.646;2022-07-29T04:12:36;23.50;33.80
71208;DHT22;58938;49.868;8.646;2022-07-29T04:15:04;23.40;33.90
71208;DHT22;58938;49.868;8.646;2022-07-29T04:17:29;23.40;33.90
71208;DHT22;58938;49.868;8.646;2022-07-29T04:19:55;23.40;33.90
71208;DHT22;58938;49.868;8.646;2022-07-29T04:22:21;23.40;33.90
71208;DHT22;58938;49.868;8.646;2022-07-29T04:24:46;23.40;33.90
71208;DHT22;58938;49.868;8.646;2022-07-29T04:27:12;23.30;34.00
71208;DHT22;58938;49.868;8.646;2022-07-29T04:29:37;23.30;34.00
71208;DHT22;58938;49.868;8.646;2022-07-29T04:32:03;23.30;34.10
71208;DHT22;58938;49.868;8.646;2022-07-29T04:34:29;23.30;34.10
71208;DHT22;58938;49.868;8.646;2022-07-29T04:36:55;23.30;34.20
71208;DHT22;58938;49.868;8.646;2022-07-29T04:39:20;23.30;34.30
71208;DHT22;58938;49.868;8.646;2022-07-29T04:41:46;23.30;34.40
71208;DHT22;58938;49.868;8.646;2022-07-29T04:44:12;23.30;34.30
71208;DHT22;58938;49.868;8.646;2022-07-29T04:46:38;23.20;34.40
71208;DHT22;58938;49.868;8.646;2022-07-29T04:49:03;23.20;34.50
71208;DHT22;58938;49.868;8.646;2022-07-29T04:51:29;23.20;34.50
71208;DHT22;58938;49.868;8.646;2022-07-29T04:53:55;23.20;34.50
71208;DHT22;58938;49.868;8.646;2022-07-29T04:56:20;23.20;34.60
71208;DHT22;58938;49.868;8.646;2022-07-29T04:58:46;23.10;34.80
71208;DHT22;58938;49.868;8.646;2022-07-29T05:01:11;23.20;34.80
71208;DHT22;58938;49.868;8.646;2022-07-29T05:03:37;23.20;34.80
71208;DHT22;58938;49.868;8.646;2022-07-29T05:06:03;23.20;34.80
71208;DHT22;58938;49.868;8.646;2022-07-29T05:08:28;23.20;34.90
71208;DHT22;58938;49.868;8.646;2022-07-29T05:10:54;23.20;34.80
71208;DHT22;58938;49.868;8.646;2022-07-29T05:13:19;23.20;34.90
71208;DHT22;58938;49.868;8.646;2022-07-29T05:15:45;23.20;35.00
71208;DHT22;58938;49.868;8.646;2022-07-29T05:18:11;23.20;35.20
71208;DHT22;58938;49.868;8.646;2022-07-29T05:20:36;23.20;35.10
71208;DHT22;58938;49.868;8.646;2022-07-29T05:23:02;23.20;35.20
71208;DHT22;58938;49.868;8.646;2022-07-29T05:25:28;23.20;35.20
71208;DHT22;58938;49.868;8.646;2022-07-29T05:27:55;23.20;35.20
71208;DHT22;58938;49.868;8.646;2022-07-29T05:30:21;23.20;35.20
71208;DHT22;58938;49.868;8.646;2022-07-29T05:32:47;23.20;35.30
71208;DHT22;58938;49.868;8.646;2022-07-29T05:35:13;23.20;35.30
71208;DHT22;58938;49.868;8.646;2022-07-29T05:37:39;23.20;35.40
71208;DHT22;58938;49.868;8.646;2022-07-29T05:40:06;23.20;35.50
71208;DHT22;58938;49.868;8.646;2022-07-29T05:42:31;23.20;35.50
71208;DHT22;58938;49.868;8.646;2022-07-29T05:44:57;23.20;35.50
71208;DHT22;58938;49.868;8.646;2022-07-29T05:47:24;23.20;35.50
71208;DHT22;58938;49.868;8.646;2022-07-29T05:49:49;23.20;35.60
71208;DHT22;58938;49.868;8.646;2022-07-29T05:52:16;23.20;35.70
71208;DHT22;58938;49.868;8.646;2022-07-29T05:54:41;23.20;35.60
71208;DHT22;58938;49.868;8.646;2022-07-29T05:57:07;23.20;35.70
71208;DHT22;58938;49.868;8.646;2022-07-29T05:59:37;23.30;35.80
71208;DHT22;58938;49.868;8.646;2022-07-29T06:02:03;23.30;35.80
71208;DHT22;58938;49.868;8.646;2022-07-29T06:04:30;23.30;35.80
71208;DHT22;58938;49.868;8.646;2022-07-29T06:06:56;23.30;35.90
71208;DHT22;58938;49.868;8.646;2022-07-29T06:09:22;23.30;35.90
71208;DHT22;58938;49.868;8.646;2022-07-29T06:11:48;23.30;35.90
71208;DHT22;58938;49.868;8.646;2022-07-29T06:14:14;23.30;35.90
71208;DHT22;58938;49.868;8.646;2022-07-29T06:16:40;23.30;35.90
71208;DHT22;58938;49.868;8.646;2022-07-29T06:19:05;23.40;35.90
71208;DHT22;58938;49.868;8.646;2022-07-29T06:21:31;23.40;36.00
71208;DHT22;58938;49.868;8.646;2022-07-29T06:23:57;23.40;36.10
71208;DHT22;58938;49.868;8.646;2022-07-29T06:26:22;23.40;36.10
71208;DHT22;58938;49.868;8.646;2022-07-29T06:28:48;23.50;36.10
71208;DHT22;58938;49.868;8.646;2022-07-29T06:31:14;23.50;36.10
71208;DHT22;58938;49.868;8.646;2022-07-29T06:33:40;23.50;36.10
71208;DHT22;58938;49.868;8.646;2022-07-29T06:36:06;23.50;36.10
71208;DHT22;58938;49.868;8.646;2022-07-29T06:38:32;23.50;35.80
71208;DHT22;58938;49.868;8.646;2022-07-29T06:40:59;23.50;35.70
71208;DHT22;58938;49.868;8.646;2022-07-29T06:43:39;23.60;35.30
71208;DHT22;58938;49.868;8.646;2022-07-29T06:46:10;23.60;35.20
71208;DHT22;58938;49.868;8.646;2022-07-29T06:48:36;23.60;35.10
71208;DHT22;58938;49.868;8.646;2022-07-29T06:51:02;23.60;35.00
71208;DHT22;58938;49.868;8.646;2022-07-29T06:53:29;23.70;35.00
71208;DHT22;58938;49.868;8.646;2022-07-29T06:55:55;23.70;35.00
71208;DHT22;58938;49.868;8.646;2022-07-29T06:58:20;23.70;34.90
71208;DHT22;58938;49.868;8.646;2022-07-29T07:00:47;23.80;34.90
71208;DHT22;58938;49.868;8.646;2022-07-29T07:03:13;23.80;34.90
71208;DHT22;58938;49.868;8.646;2022-07-29T07:05:39;23.80;34.80
71208;DHT22;58938;49.868;8.646;2022-07-29T07:08:05;23.80;34.80
71208;DHT22;58938;49.868;8.646;2022-07-29T07:10:31;23.80;34.80
71208;DHT22;58938;49.868;8.646;2022-07-29T07:12:57;23.90;34.80
71208;DHT22;58938;49.868;8.646;2022-07-29T07:15:23;23.90;34.80
71208;DHT22;58938;49.868;8.646;2022-07-29T07:17:49;23.90;34.80
71208;DHT22;58938;49.868;8.646;2022-07-29T07:20:15;23.90;34.90
71208;DHT22;58938;49.868;8.646;2022-07-29T07:22:41;24.00;35.00
71208;DHT22;58938;49.868;8.646;2022-07-29T07:25:07;24.00;35.00
71208;DHT22;58938;49.868;8.646;2022-07-29T07:27:33;24.00;35.10
71208;DHT22;58938;49.868;8.646;2022-07-29T07:29:58;24.00;35.10
71208;DHT22;58938;49.868;8.646;2022-07-29T07:32:24;24.10;35.20
71208;DHT22;58938;49.868;8.646;2022-07-29T07:34:50;24.10;35.20
71208;DHT22;58938;49.868;8.646;2022-07-29T07:37:15;24.10;35.20
71208;DHT22;58938;49.868;8.646;2022-07-29T07:39:41;24.20;35.30
71208;DHT22;58938;49.868;8.646;2022-07-29T07:42:07;24.20;35.40
71208;DHT22;58938;49.868;8.646;2022-07-29T07:44:32;24.20;35.50
71208;DHT22;58938;49.868;8.646;2022-07-29T07:46:58;24.20;35.60
71208;DHT22;58938;49.868;8.646;2022-07-29T07:49:23;24.30;35.80
71208;DHT22;58938;49.868;8.646;2022-07-29T07:51:49;24.30;36.00
71208;DHT22;58938;49.868;8.646;2022-07-29T07:54:15;24.30;36.10
71208;DHT22;58938;49.868;8.646;2022-07-29T07:56:40;24.30;36.20
71208;DHT22;58938;49.868;8.646;2022-07-29T07:59:06;24.40;36.30
71208;DHT22;58938;49.868;8.646;2022-07-29T08:01:31;24.40;36.60
71208;DHT22;58938;49.868;8.646;2022-07-29T08:03:57;24.40;36.70
71208;DHT22;58938;49.868;8.646;2022-07-29T08:06:23;24.50;36.90
71208;DHT22;58938;49.868;8.646;2022-07-29T08:08:50;24.50;37.00
71208;DHT22;58938;49.868;8.646;2022-07-29T08:11:16;24.50;37.20
71208;DHT22;58938;49.868;8.646;2022-07-29T08:13:42;24.60;37.30
71208;DHT22;58938;49.868;8.646;2022-07-29T08:16:08;24.60;37.60
71208;DHT22;58938;49.868;8.646;2022-07-29T08:18:38;24.60;38.00
71208;DHT22;58938;49.868;8.646;2022-07-29T08:21:05;24.70;38.20
71208;DHT22;58938;49.868;8.646;2022-07-29T08:23:30;24.70;38.40
71208;DHT22;58938;49.868;8.646;2022-07-29T08:26:12;24.70;38.60
71208;DHT22;58938;49.868;8.646;2022-07-29T08:28:39;24.70;38.80
71208;DHT22;58938;49.868;8.646;2022-07-29T08:31:06;24.80;39.00
71208;DHT22;58938;49.868;8.646;2022-07-29T08:33:32;24.80;39.30
71208;DHT22;58938;49.868;8.646;2022-07-29T08:35:57;24.80;39.30
71208;DHT22;58938;49.868;8.646;2022-07-29T08:38:23;24.90;39.50
71208;DHT22;58938;49.868;8.646;2022-07-29T08:40:49;24.90;39.80
71208;DHT22;58938;49.868;8.646;2022-07-29T08:43:14;24.90;39.90
71208;DHT22;58938;49.868;8.646;2022-07-29T08:45:46;24.90;40.00
71208;DHT22;58938;49.868;8.646;2022-07-29T08:48:13;25.00;40.10
71208;DHT22;58938;49.868;8.646;2022-07-29T08:50:41;25.00;40.10
71208;DHT22;58938;49.868;8.646;2022-07-29T08:53:10;25.00;40.10
71208;DHT22;58938;49.868;8.646;2022-07-29T08:55:43;25.10;40.10
71208;DHT22;58938;49.868;8.646;2022-07-29T08:58:09;25.10;40.20
71208;DHT22;58938;49.868;8.646;2022-07-29T09:00:36;25.10;40.30
71208;DHT22;58938;49.868;8.646;2022-07-29T09:03:04;25.20;40.30
71208;DHT22;58938;49.868;8.646;2022-07-29T09:05:31;25.20;40.40
71208;DHT22;58938;49.868;8.646;2022-07-29T09:07:57;25.20;40.40
71208;DHT22;58938;49.868;8.646;2022-07-29T09:10:24;25.20;40.40
71208;DHT22;58938;49.868;8.646;2022-07-29T09:12:49;25.30;40.40
71208;DHT22;58938;49.868;8.646;2022-07-29T09:15:15;25.30;40.40
71208;DHT22;58938;49.868;8.646;2022-07-29T09:17:46;25.30;40.30
71208;DHT22;58938;49.868;8.646;2022-07-29T09:20:14;25.30;40.30
71208;DHT22;58938;49.868;8.646;2022-07-29T09:22:40;25.40;40.30
71208;DHT22;58938;49.868;8.646;2022-07-29T09:25:06;25.40;40.30
71208;DHT22;58938;49.868;8.646;2022-07-29T09:27:32;25.40;40.30
71208;DHT22;58938;49.868;8.646;2022-07-29T09:32:26;25.50;40.40
71208;DHT22;58938;49.868;8.646;2022-07-29T09:35:16;25.50;40.40
71208;DHT22;58938;49.868;8.646;2022-07-29T09:37:43;25.60;40.50
71208;DHT22;58938;49.868;8.646;2022-07-29T09:40:14;25.60;40.50
71208;DHT22;58938;49.868;8.646;2022-07-29T09:42:41;25.60;40.60
71208;DHT22;58938;49.868;8.646;2022-07-29T09:45:07;25.70;40.80
71208;DHT22;58938;49.868;8.646;2022-07-29T09:47:45;25.70;40.90
71208;DHT22;58938;49.868;8.646;2022-07-29T09:50:11;25.80;41.00
71208;DHT22;58938;49.868;8.646;2022-07-29T09:52:48;25.80;41.00
71208;DHT22;58938;49.868;8.646;2022-07-29T09:55:14;25.90;41.00
71208;DHT22;58938;49.868;8.646;2022-07-29T09:57:40;25.90;40.80
71208;DHT22;58938;49.868;8.646;2022-07-29T10:00:13;26.00;40.90
71208;DHT22;58938;49.868;8.646;2022-07-29T10:02:42;26.00;40.90
71208;DHT22;58938;49.868;8.646;2022-07-29T10:05:29;26.10;40.80
71208;DHT22;58938;49.868;8.646;2022-07-29T10:07:57;26.10;40.80
71208;DHT22;58938;49.868;8.646;2022-07-29T10:10:26;26.20;40.80
71208;DHT22;58938;49.868;8.646;2022-07-29T10:13:03;26.20;40.80
71208;DHT22;58938;49.868;8.646;2022-07-29T10:15:31;26.20;40.60
71208;DHT22;58938;49.868;8.646;2022-07-29T10:17:58;26.30;40.60
71208;DHT22;58938;49.868;8.646;2022-07-29T10:20:26;26.30;40.40
71208;DHT22;58938;49.868;8.646;2022-07-29T10:22:53;26.30;40.30
71208;DHT22;58938;49.868;8.646;2022-07-29T10:25:19;26.30;40.20
71208;DHT22;58938;49.868;8.646;2022-07-29T10:27:46;26.30;39.90
71208;DHT22;58938;49.868;8.646;2022-07-29T10:30:13;26.40;39.70
71208;DHT22;58938;49.868;8.646;2022-07-29T10:32:51;26.40;39.70
71208;DHT22;58938;49.868;8.646;2022-07-29T10:43:51;26.50;39.40
71208;DHT22;58938;49.868;8.646;2022-07-29T10:46:17;26.60;39.30
71208;DHT22;58938;49.868;8.646;2022-07-29T10:49:09;26.60;39.20
71208;DHT22;58938;49.868;8.646;2022-07-29T10:54:18;26.60;38.80
71208;DHT22;58938;49.868;8.646;2022-07-29T10:56:44;26.70;38.90
71208;DHT22;58938;49.868;8.646;2022-07-29T11:01:50;26.80;38.90
71208;DHT22;58938;49.868;8.646;2022-07-29T11:04:58;26.90;38.80
71208;DHT22;58938;49.868;8.646;2022-07-29T11:07:08;26.90;38.80
71208;DHT22;58938;49.868;8.646;2022-07-29T11:09:34;26.90;38.80
71208;DHT22;58938;49.868;8.646;2022-07-29T11:12:00;26.90;38.80
71208;DHT22;58938;49.868;8.646;2022-07-29T11:17:20;27.10;38.80
71208;DHT22;58938;49.868;8.646;2022-07-29T11:19:46;27.20;38.80
71208;DHT22;58938;49.868;8.646;2022-07-29T11:22:34;27.40;38.60
71208;DHT22;58938;49.868;8.646;2022-07-29T11:25:17;27.60;38.50
71208;DHT22;58938;49.868;8.646;2022-07-29T11:27:44;27.70;38.40
71208;DHT22;58938;49.868;8.646;2022-07-29T11:30:10;27.90;38.10
71208;DHT22;58938;49.868;8.646;2022-07-29T11:32:41;27.90;37.70
71208;DHT22;58938;49.868;8.646;2022-07-29T11:35:28;28.00;37.50
71208;DHT22;58938;49.868;8.646;2022-07-29T11:38:29;28.20;37.50
71208;DHT22;58938;49.868;8.646;2022-07-29T11:41:25;28.20;37.40
71208;DHT22;58938;49.868;8.646;2022-07-29T11:43:56;28.20;37.30
71208;DHT22;58938;49.868;8.646;2022-07-29T11:49:12;28.20;37.20
71208;DHT22;58938;49.868;8.646;2022-07-29T11:51:38;28.10;37.10
71208;DHT22;58938;49.868;8.646;2022-07-29T11:54:04;28.20;37.10
71208;DHT22;58938;49.868;8.646;2022-07-29T11:56:31;28.20;37.10
71208;DHT22;58938;49.868;8.646;2022-07-29T11:59:04;28.20;37.10
71208;DHT22;58938;49.868;8.646;2022-07-29T12:01:30;28.20;37.30
71208;DHT22;58938;49.868;8.646;2022-07-29T12:04:05;28.20;37.30
71208;DHT22;58938;49.868;8.646;2022-07-29T12:06:32;28.30;37.30
71208;DHT22;58938;49.868;8.646;2022-07-29T12:08:58;28.30;37.30
71208;DHT22;58938;49.868;8.646;2022-07-29T12:11:24;28.40;37.30
71208;DHT22;58938;49.868;8.646;2022-07-29T12:13:50;28.40;37.20
71208;DHT22;58938;49.868;8.646;2022-07-29T12:16:16;28.50;37.30
71208;DHT22;58938;49.868;8.646;2022-07-29T12:19:01;28.50;36.80
71208;DHT22;58938;49.868;8.646;2022-07-29T12:21:29;28.50;36.80
71208;DHT22;58938;49.868;8.646;2022-07-29T12:23:56;28.60;36.60
71208;DHT22;58938;49.868;8.646;2022-07-29T12:26:21;28.60;36.20
71208;DHT22;58938;49.868;8.646;2022-07-29T12:28:48;28.60;36.10
71208;DHT22;58938;49.868;8.646;2022-07-29T12:31:14;28.60;36.00
71208;DHT22;58938;49.868;8.646;2022-07-29T12:33:40;28.60;36.00
71208;DHT22;58938;49.868;8.646;2022-07-29T12:36:06;28.70;36.00
71208;DHT22;58938;49.868;8.646;2022-07-29T12:38:36;28.70;36.00
71208;DHT22;58938;49.868;8.646;2022-07-29T12:41:03;28.80;35.80
71208;DHT22;58938;49.868;8.646;2022-07-29T12:43:29;28.80;35.60
71208;DHT22;58938;49.868;8.646;2022-07-29T12:45:56;28.80;35.40
71208;DHT22;58938;49.868;8.646;2022-07-29T12:48:39;28.80;35.30
71208;DHT22;58938;49.868;8.646;2022-07-29T12:51:06;28.90;35.40
71208;DHT22;58938;49.868;8.646;2022-07-29T12:53:35;28.90;35.20
71208;DHT22;58938;49.868;8.646;2022-07-29T12:56:02;28.90;35.20
71208;DHT22;58938;49.868;8.646;2022-07-29T13:03:52;29.00;34.40
71208;DHT22;58938;49.868;8.646;2022-07-29T13:06:36;29.00;34.30
71208;DHT22;58938;49.868;8.646;2022-07-29T13:09:17;29.10;33.70
71208;DHT22;58938;49.868;8.646;2022-07-29T13:11:45;29.10;33.80
71208;DHT22;58938;49.868;8.646;2022-07-29T13:14:13;29.10;33.70
71208;DHT22;58938;49.868;8.646;2022-07-29T13:19:43;29.20;33.40
71208;DHT22;58938;49.868;8.646;2022-07-29T13:22:11;29.20;33.30
71208;DHT22;58938;49.868;8.646;2022-07-29T13:25:00;29.30;33.10
71208;DHT22;58938;49.868;8.646;2022-07-29T13:27:33;29.30;32.80
71208;DHT22;58938;49.868;8.646;2022-07-29T13:30:00;29.30;32.40
71208;DHT22;58938;49.868;8.646;2022-07-29T13:32:28;29.40;32.40
71208;DHT22;58938;49.868;8.646;2022-07-29T13:34:55;29.40;32.40
71208;DHT22;58938;49.868;8.646;2022-07-29T13:37:21;29.40;32.50
71208;DHT22;58938;49.868;8.646;2022-07-29T13:39:47;29.40;32.50
71208;DHT22;58938;49.868;8.646;2022-07-29T13:42:13;29.40;32.30
71208;DHT22;58938;49.868;8.646;2022-07-29T13:44:39;29.40;31.80
71208;DHT22;58938;49.868;8.646;2022-07-29T13:47:06;29.40;31.70
71208;DHT22;58938;49.868;8.646;2022-07-29T13:49:35;29.40;31.50
71208;DHT22;58938;49.868;8.646;2022-07-29T13:52:01;29.40;31.50
71208;DHT22;58938;49.868;8.646;2022-07-29T13:54:28;29.40;31.70
71208;DHT22;58938;49.868;8.646;2022-07-29T13:56:53;29.40;31.90
71208;DHT22;58938;49.868;8.646;2022-07-29T13:59:19;29.40;32.00
71208;DHT22;58938;49.868;8.646;2022-07-29T14:01:44;29.40;32.10
71208;DHT22;58938;49.868;8.646;2022-07-29T14:04:11;29.40;31.90
71208;DHT22;58938;49.868;8.646;2022-07-29T14:06:37;29.40;31.90
71208;DHT22;58938;49.868;8.646;2022-07-29T14:09:04;29.30;31.80
71208;DHT22;58938;49.868;8.646;2022-07-29T14:11:34;29.30;31.70
71208;DHT22;58938;49.868;8.646;2022-07-29T14:14:00;29.30;31.50
71208;DHT22;58938;49.868;8.646;2022-07-29T14:16:26;29.30;31.40
71208;DHT22;58938;49.868;8.646;2022-07-29T14:18:52;29.30;31.50
71208;DHT22;58938;49.868;8.646;2022-07-29T14:21:18;29.30;31.40
71208;DHT22;58938;49.868;8.646;2022-07-29T14:23:43;29.20;31.50
71208;DHT22;58938;49.868;8.646;2022-07-29T14:26:09;29.30;31.60
71208;DHT22;58938;49.868;8.646;2022-07-29T14:28:35;29.20;31.60
71208;DHT22;58938;49.868;8.646;2022-07-29T14:31:00;29.20;31.90
71208;DHT22;58938;49.868;8.646;2022-07-29T14:33:26;29.20;32.00
71208;DHT22;58938;49.868;8.646;2022-07-29T14:35:51;29.20;32.00
71208;DHT22;58938;49.868;8.646;2022-07-29T14:38:17;29.20;32.00
71208;DHT22;58938;49.868;8.646;2022-07-29T14:40:43;29.20;32.00
71208;DHT22;58938;49.868;8.646;2022-07-29T14:43:08;29.20;32.10
71208;DHT22;58938;49.868;8.646;2022-07-29T14:45:34;29.20;32.20
71208;DHT22;58938;49.868;8.646;2022-07-29T14:48:00;29.20;32.20
71208;DHT22;58938;49.868;8.646;2022-07-29T14:50:25;29.20;32.20
71208;DHT22;58938;49.868;8.646;2022-07-29T14:52:52;29.20;32.30
71208;DHT22;58938;49.868;8.646;2022-07-29T14:55:17;29.20;32.30
71208;DHT22;58938;49.868;8.646;2022-07-29T14:57:43;29.20;32.20
71208;DHT22;58938;49.868;8.646;2022-07-29T15:00:09;29.20;32.30
71208;DHT22;58938;49.868;8.646;2022-07-29T15:02:35;29.20;32.50
71208;DHT22;58938;49.868;8.646;2022-07-29T15:05:01;29.20;32.50
71208;DHT22;58938;49.868;8.646;2022-07-29T15:07:27;29.20;32.70
71208;DHT22;58938;49.868;8.646;2022-07-29T15:09:53;29.20;32.60
71208;DHT22;58938;49.868;8.646;2022-07-29T15:12:19;29.20;32.60
71208;DHT22;58938;49.868;8.646;2022-07-29T15:14:44;29.20;32.60
71208;DHT22;58938;49.868;8.646;2022-07-29T15:17:10;29.20;32.50
71208;DHT22;58938;49.868;8.646;2022-07-29T15:19:35;29.20;32.40
71208;DHT22;58938;49.868;8.646;2022-07-29T15:22:01;29.20;32.30
71208;DHT22;58938;49.868;8.646;2022-07-29T15:24:27;29.20;32.20
71208;DHT22;58938;49.868;8.646;2022-07-29T15:26:52;29.30;32.20
71208;DHT22;58938;49.868;8.646;2022-07-29T15:29:18;29.30;32.30
71208;DHT22;58938;49.868;8.646;2022-07-29T15:31:43;29.30;32.50
71208;DHT22;58938;49.868;8.646;2022-07-29T15:34:09;29.30;32.60
71208;DHT22;58938;49.868;8.646;2022-07-29T15:36:35;29.30;32.70
71208;DHT22;58938;49.868;8.646;2022-07-29T15:39:01;29.30;32.70
71208;DHT22;58938;49.868;8.646;2022-07-29T15:41:26;29.30;32.50
71208;DHT22;58938;49.868;8.646;2022-07-29T15:43:52;29.40;32.40
71208;DHT22;58938;49.868;8.646;2022-07-29T15:46:19;29.40;32.30
71208;DHT22;58938;49.868;8.646;2022-07-29T15:49:05;29.40;32.30
71208;DHT22;58938;49.868;8.646;2022-07-29T15:51:32;29.40;32.30
71208;DHT22;58938;49.868;8.646;2022-07-29T15:53:57;29.40;32.20
71208;DHT22;58938;49.868;8.646;2022-07-29T15:56:26;29.40;32.20
71208;DHT22;58938;49.868;8.646;2022-07-29T15:58:52;29.40;32.30
71208;DHT22;58938;49.868;8.646;2022-07-29T16:01:17;29.40;32.30
71208;DHT22;58938;49.868;8.646;2022-07-29T16:03:43;29.40;32.30
71208;DHT22;58938;49.868;8.646;2022-07-29T16:06:09;29.40;32.20
71208;DHT22;58938;49.868;8.646;2022-07-29T16:08:34;29.40;32.10
71208;DHT22;58938;49.868;8.646;2022-07-29T16:11:03;29.40;32.00
71208;DHT22;58938;49.868;8.646;2022-07-29T16:13:28;29.40;32.00